Time;durP1;ratioP1;P1;durP2;ratioP2;P2;SDS_P1;SDS_P2;PMS_P1;PMS_P2;Temp;Humidity;BMP_temperature;BMP_pressure;BME280_temperature;BME280_humidity;BME280_pressure;Samples;Min_cycle;Max_cycle;Signal;HPM_P1;HPM_P2
2021/06/05 13:22:09;;;;;;;3.05;2.40;;;31.60;24.50;;;;;;5024963;28;89668;-65
2021/06/05 13:24:36;;;;;;;4.65;3.05;;;32.70;24.20;;;;;;5074670;28;20040;-63
2021/06/05 13:27:32;;;;;;;7.25;2.92;;;33.10;23.70;;;;;;5074261;28;20044;-65
2021/06/05 13:30:19;;;;;;;5.57;2.88;;;32.80;23.70;;;;;;5046943;28;20453;-66
2021/06/05 13:32:49;;;;;;;3.15;2.70;;;32.40;24.80;;;;;;5057005;28;20048;-65
2021/06/05 13:35:19;;;;;;;4.10;2.50;;;32.00;25.20;;;;;;5085963;27;20124;-64
2021/06/05 13:37:54;;;;;;;2.95;2.53;;;31.30;25.30;;;;;;5074660;28;20028;-64
2021/06/05 13:40:20;;;;;;;4.75;2.90;;;30.80;26.20;;;;;;5071315;28;21698;-66
2021/06/05 13:42:49;;;;;;;5.40;2.85;;;30.40;26.20;;;;;;5066615;28;20032;-64
2021/06/05 13:45:20;;;;;;;112.22;13.80;;;30.00;26.70;;;;;;5070827;28;20028;-65
2021/06/05 13:47:46;;;;;;;20.92;4.72;;;30.00;27.20;;;;;;5076224;28;20036;-64
2021/06/05 13:50:15;;;;;;;3.13;2.83;;;29.90;27.10;;;;;;5081212;28;20086;-65
2021/06/05 13:52:41;;;;;;;3.35;2.78;;;29.70;27.30;;;;;;5071021;28;20573;-65
2021/06/05 13:55:21;;;;;;;4.28;2.83;;;29.80;27.60;;;;;;5078646;28;20131;-64
2021/06/05 13:57:47;;;;;;;8.27;3.78;;;30.10;27.30;;;;;;5079187;28;20040;-66
2021/06/05 14:00:13;;;;;;;4.00;3.28;;;30.50;27.10;;;;;;5081477;28;20528;-66
2021/06/05 14:02:41;;;;;;;5.75;3.20;;;31.70;26.60;;;;;;5075724;28;20040;-66
2021/06/05 14:05:07;;;;;;;5.50;3.25;;;31.40;26.60;;;;;;5075877;28;21574;-65
2021/06/05 14:07:33;;;;;;;5.53;3.28;;;32.40;26.20;;;;;;5069570;28;20046;-66
2021/06/05 14:09:58;;;;;;;5.30;3.40;;;31.50;26.40;;;;;;5078460;28;20088;-66
2021/06/05 14:12:26;;;;;;;5.43;3.63;;;31.10;26.80;;;;;;5077316;28;20525;-65
2021/06/05 14:14:53;;;;;;;4.13;3.63;;;30.70;27.30;;;;;;5079504;28;20135;-65
2021/06/05 14:17:19;;;;;;;3.53;2.90;;;30.20;27.60;;;;;;5069586;28;20044;-65
2021/06/05 14:19:44;;;;;;;6.20;3.30;;;30.00;28.00;;;;;;5079133;28;20130;-65
2021/06/05 14:22:11;;;;;;;3.60;3.30;;;29.60;28.10;;;;;;5063587;28;20120;-65
2021/06/05 14:24:37;;;;;;;6.97;2.92;;;29.50;28.20;;;;;;5062105;28;20032;-65
2021/06/05 14:27:04;;;;;;;3.65;3.35;;;29.80;28.30;;;;;;5077087;28;20044;-65
2021/06/05 14:29:30;;;;;;;6.22;3.20;;;29.80;28.20;;;;;;5080810;28;20052;-64
2021/06/05 14:31:58;;;;;;;4.43;2.60;;;29.70;28.60;;;;;;5070888;28;20033;-63
2021/06/05 14:34:25;;;;;;;5.25;3.63;;;29.70;28.40;;;;;;5071334;28;20043;-65
2021/06/05 14:36:50;;;;;;;3.60;3.30;;;29.90;28.40;;;;;;5082059;28;20036;-65
2021/06/05 14:39:16;;;;;;;4.78;3.65;;;29.80;28.50;;;;;;5072969;28;20105;-65
2021/06/05 14:41:49;;;;;;;5.18;3.47;;;29.80;28.80;;;;;;5074045;28;20032;-65
2021/06/05 14:44:15;;;;;;;6.38;3.10;;;29.90;28.60;;;;;;5077653;28;20038;-65
2021/06/05 14:46:40;;;;;;;4.38;3.70;;;30.30;28.20;;;;;;5081960;28;20035;-65
2021/06/05 14:49:06;;;;;;;4.88;3.35;;;30.80;27.80;;;;;;5068926;28;20036;-64
2021/06/05 14:51:32;;;;;;;4.18;3.33;;;31.20;27.30;;;;;;5077012;28;22468;-65
2021/06/05 14:53:57;;;;;;;4.85;3.60;;;31.90;26.70;;;;;;5076122;28;20028;-65
2021/06/05 14:56:24;;;;;;;5.70;3.35;;;32.40;26.20;;;;;;5078863;28;20043;-65
2021/06/05 14:58:50;;;;;;;6.57;3.85;;;33.00;25.80;;;;;;5075715;28;20039;-65
2021/06/05 15:01:15;;;;;;;5.35;3.33;;;32.30;26.00;;;;;;5080610;28;20036;-65
2021/06/05 15:03:41;;;;;;;6.07;3.97;;;31.50;26.50;;;;;;5073443;28;20039;-65
2021/06/05 15:06:07;;;;;;;5.75;3.40;;;30.80;27.50;;;;;;5064934;28;20029;-62
2021/06/05 15:08:33;;;;;;;5.35;3.90;;;30.50;27.80;;;;;;5071635;28;20043;-65
2021/06/05 15:10:58;;;;;;;5.60;3.63;;;30.10;27.80;;;;;;5078805;28;20844;-65
2021/06/05 15:13:24;;;;;;;4.68;3.83;;;29.80;28.30;;;;;;5086358;28;20146;-65
2021/06/05 15:15:50;;;;;;;8.27;4.00;;;29.40;28.90;;;;;;5070299;28;20036;-65
2021/06/05 15:18:16;;;;;;;6.25;3.63;;;29.30;29.30;;;;;;5077052;28;20485;-64
2021/06/05 15:20:41;;;;;;;4.80;3.75;;;29.20;29.30;;;;;;5072767;28;20067;-64
2021/06/05 15:23:12;;;;;;;6.45;3.55;;;29.20;29.20;;;;;;5077617;28;20051;-63
2021/06/05 15:25:42;;;;;;;4.40;3.10;;;29.00;29.30;;;;;;5073379;28;20618;-64
2021/06/05 15:28:08;;;;;;;5.95;3.35;;;29.00;29.70;;;;;;5079669;28;20040;-64
2021/06/05 15:30:39;;;;;;;3.78;3.47;;;28.90;29.40;;;;;;5073136;28;20036;-65
2021/06/05 15:33:06;;;;;;;4.40;3.40;;;28.90;29.60;;;;;;5076873;28;20140;-66
2021/06/05 15:35:35;;;;;;;4.20;3.35;;;28.70;29.60;;;;;;5071411;28;20029;-65
2021/06/05 15:38:03;;;;;;;4.03;3.33;;;28.70;29.80;;;;;;5071481;28;20558;-65
2021/06/05 15:40:30;;;;;;;7.38;3.85;;;28.60;30.00;;;;;;5064659;28;20033;-66
2021/06/05 15:42:56;;;;;;;6.35;3.00;;;28.50;30.10;;;;;;5075745;28;20040;-65
2021/06/05 15:45:28;;;;;;;4.28;3.25;;;28.40;30.20;;;;;;5076547;28;20062;-66
2021/06/05 15:47:55;;;;;;;5.90;3.67;;;28.40;30.70;;;;;;5071107;28;20134;-65
2021/06/05 15:50:25;;;;;;;3.58;2.70;;;28.40;30.50;;;;;;5076442;28;20094;-66
2021/06/05 15:52:50;;;;;;;5.20;3.30;;;28.30;30.80;;;;;;5078821;28;20055;-65
2021/06/05 15:55:17;;;;;;;4.65;3.05;;;28.30;31.20;;;;;;5071726;28;20111;-66
2021/06/05 15:57:43;;;;;;;5.20;3.40;;;28.20;30.90;;;;;;5072885;28;20043;-66
2021/06/05 16:00:24;;;;;;;5.00;3.78;;;28.10;30.90;;;;;;5075982;28;20041;-65
2021/06/05 16:02:50;;;;;;;12.73;3.72;;;28.00;31.80;;;;;;5082903;28;20047;-65
2021/06/05 16:05:18;;;;;;;11.75;4.72;;;27.20;37.10;;;;;;5080226;28;20048;-65
2021/06/05 16:07:44;;;;;;;7.75;3.78;;;25.60;58.00;;;;;;5077548;28;20145;-64
2021/06/05 16:10:12;;;;;;;7.53;3.38;;;24.20;99.90;;;;;;5081007;28;20127;-65
2021/06/05 16:12:38;;;;;;;5.13;3.00;;;23.70;64.60;;;;;;5077312;28;20028;-64
2021/06/05 16:15:08;;;;;;;6.25;4.38;;;23.70;58.90;;;;;;5087519;28;20146;-65
2021/06/05 16:17:34;;;;;;;4.95;4.35;;;23.80;58.40;;;;;;5074690;28;20129;-65
2021/06/05 16:19:59;;;;;;;7.95;4.80;;;24.10;58.40;;;;;;5081198;28;20044;-65
2021/06/05 16:22:25;;;;;;;5.70;4.15;;;24.10;60.60;;;;;;5069058;28;21037;-66
2021/06/05 16:24:51;;;;;;;5.45;4.43;;;24.30;57.10;;;;;;5084183;28;20437;-65
2021/06/05 16:27:17;;;;;;;5.57;3.80;;;24.30;56.80;;;;;;5077370;28;20044;-65
2021/06/05 16:29:42;;;;;;;7.20;3.95;;;24.30;56.40;;;;;;5067208;28;20506;-65
2021/06/05 16:32:09;;;;;;;5.82;2.95;;;24.20;54.90;;;;;;5077939;28;20032;-65
2021/06/05 16:34:35;;;;;;;5.00;3.97;;;24.20;55.20;;;;;;5073872;28;20028;-65
2021/06/05 16:37:01;;;;;;;5.07;3.95;;;24.20;54.10;;;;;;5079132;28;20101;-65
2021/06/05 16:39:27;;;;;;;5.72;3.30;;;24.20;54.30;;;;;;5084535;28;20047;-65
2021/06/05 16:41:53;;;;;;;5.78;3.17;;;24.30;53.80;;;;;;5074307;28;20029;-66
2021/06/05 16:44:20;;;;;;;5.07;2.78;;;24.40;52.90;;;;;;5069331;28;20097;-66
2021/06/05 16:46:46;;;;;;;7.07;3.10;;;24.30;52.00;;;;;;5070032;28;20182;-66
2021/06/05 16:49:12;;;;;;;4.20;2.88;;;24.50;51.80;;;;;;5070513;28;20037;-65
2021/06/05 16:51:37;;;;;;;5.30;3.28;;;24.60;51.50;;;;;;5075610;28;20083;-64
2021/06/05 16:54:04;;;;;;;5.00;3.30;;;24.80;51.00;;;;;;5071018;28;20059;-66
2021/06/05 16:56:30;;;;;;;5.88;3.55;;;24.80;50.40;;;;;;5071436;28;20102;-65
2021/06/05 16:58:57;;;;;;;5.15;2.92;;;25.00;50.10;;;;;;5072795;28;20055;-65
2021/06/05 17:01:33;;;;;;;5.95;4.07;;;25.10;49.40;;;;;;5077561;28;20060;-65
2021/06/05 17:04:02;;;;;;;5.95;4.50;;;25.00;48.90;;;;;;5078156;28;20055;-65
2021/06/05 17:06:28;;;;;;;5.47;4.40;;;25.10;48.90;;;;;;5076823;28;20043;-65
2021/06/05 17:08:54;;;;;;;5.90;4.43;;;25.20;49.20;;;;;;5070081;28;20052;-64
2021/06/05 17:11:20;;;;;;;7.55;5.13;;;25.10;49.00;;;;;;5070295;28;20054;-65
2021/06/05 17:13:45;;;;;;;9.35;7.07;;;25.00;48.40;;;;;;5064813;28;20497;-65
2021/06/05 17:16:11;;;;;;;10.48;6.60;;;25.10;48.40;;;;;;5078239;28;20070;-65
2021/06/05 17:18:38;;;;;;;6.22;4.97;;;25.10;48.50;;;;;;5085474;28;20032;-65
2021/06/05 17:21:06;;;;;;;7.65;4.43;;;25.00;48.80;;;;;;5076174;28;20048;-65
2021/06/05 17:23:35;;;;;;;8.77;4.18;;;24.80;49.10;;;;;;5080777;28;20110;-65
2021/06/05 17:26:06;;;;;;;6.03;3.70;;;24.90;49.40;;;;;;5058696;28;20051;-65
2021/06/05 17:28:32;;;;;;;6.13;4.22;;;24.80;49.10;;;;;;5063886;28;20032;-65
2021/06/05 17:30:58;;;;;;;10.77;6.03;;;24.80;48.90;;;;;;5073057;28;20045;-65
2021/06/05 17:33:27;;;;;;;6.05;4.90;;;24.70;49.40;;;;;;5069093;28;20448;-64
2021/06/05 17:35:53;;;;;;;4.80;3.90;;;24.70;48.40;;;;;;5058722;28;20109;-65
2021/06/05 17:38:20;;;;;;;4.90;3.60;;;24.80;48.10;;;;;;5065991;28;20506;-65
2021/06/05 17:40:48;;;;;;;6.68;3.58;;;24.80;47.60;;;;;;5059465;28;20036;-64
2021/06/05 17:43:15;;;;;;;3.70;3.17;;;24.70;48.20;;;;;;5070355;28;20402;-64
2021/06/05 17:45:44;;;;;;;4.68;2.70;;;24.80;48.00;;;;;;5064115;28;20489;-64
2021/06/05 17:48:13;;;;;;;5.65;3.42;;;24.80;47.90;;;;;;5060873;28;20047;-64
2021/06/05 17:50:39;;;;;;;4.78;2.25;;;24.70;47.30;;;;;;5061468;28;20127;-65
2021/06/05 17:53:05;;;;;;;2.20;2.03;;;24.60;45.80;;;;;;5077512;28;20131;-64
2021/06/05 17:55:32;;;;;;;4.85;2.03;;;24.60;46.20;;;;;;5060717;28;20051;-65
2021/06/05 17:58:00;;;;;;;3.63;2.58;;;24.60;44.90;;;;;;5066801;28;20043;-65
2021/06/05 18:00:39;;;;;;;3.85;2.63;;;24.70;44.90;;;;;;5058404;28;20054;-65
2021/06/05 18:03:11;;;;;;;3.20;2.40;;;24.60;45.00;;;;;;5066244;28;20439;-65
2021/06/05 18:05:37;;;;;;;3.05;2.65;;;24.60;45.00;;;;;;5076855;28;20050;-59
2021/06/05 18:08:07;;;;;;;3.17;2.50;;;24.70;44.80;;;;;;5064565;28;21365;-65
2021/06/05 18:10:33;;;;;;;3.80;2.75;;;24.70;44.70;;;;;;5068112;28;20035;-65
2021/06/05 18:12:59;;;;;;;4.40;3.33;;;24.70;45.10;;;;;;5076502;28;20048;-65
2021/06/05 18:15:26;;;;;;;8.38;4.05;;;24.70;44.70;;;;;;5073531;28;20542;-65
2021/06/05 18:17:51;;;;;;;7.57;2.97;;;24.60;45.00;;;;;;5077049;28;20485;-65
2021/06/05 18:20:22;;;;;;;3.55;1.90;;;24.70;44.90;;;;;;5081766;28;20032;-64
2021/06/05 18:22:48;;;;;;;2.90;2.00;;;24.60;44.50;;;;;;5063175;28;20039;-65
2021/06/05 18:25:16;;;;;;;2.53;1.77;;;24.70;44.50;;;;;;5063757;28;20028;-66
2021/06/05 18:27:43;;;;;;;5.82;1.98;;;24.60;44.20;;;;;;5061351;28;20075;-66
2021/06/05 18:30:16;;;;;;;2.75;1.90;;;24.50;43.70;;;;;;5059487;28;20044;-66
2021/06/05 18:32:42;;;;;;;2.55;1.95;;;24.50;43.60;;;;;;5059454;28;20063;-65
2021/06/05 18:35:09;;;;;;;2.65;2.30;;;24.30;44.10;;;;;;5071806;28;20037;-65
2021/06/05 18:37:35;;;;;;;3.47;2.65;;;24.40;44.10;;;;;;5064214;28;20101;-66
2021/06/05 18:40:03;;;;;;;2.25;2.05;;;24.40;44.00;;;;;;5076287;28;20056;-66
2021/06/05 18:42:28;;;;;;;2.35;2.10;;;24.40;43.70;;;;;;5063481;28;20048;-66
2021/06/05 18:44:54;;;;;;;2.10;1.73;;;24.30;43.50;;;;;;5070829;28;20045;-66
2021/06/05 18:47:20;;;;;;;3.15;2.20;;;24.40;43.60;;;;;;5056447;28;20044;-66
2021/06/05 18:49:46;;;;;;;4.50;1.85;;;24.40;43.50;;;;;;5062971;28;20065;-66
2021/06/05 18:52:12;;;;;;;4.93;2.38;;;24.40;43.70;;;;;;5071673;28;20477;-66
2021/06/05 18:54:38;;;;;;;3.47;2.40;;;24.40;44.00;;;;;;5063085;28;20052;-64
2021/06/05 18:57:09;;;;;;;3.33;2.17;;;24.40;44.00;;;;;;5076078;28;20032;-67
2021/06/05 18:59:35;;;;;;;4.95;2.28;;;24.40;44.10;;;;;;5073349;28;20063;-66
2021/06/05 19:02:02;;;;;;;2.75;2.47;;;24.30;44.40;;;;;;5059298;28;20271;-66
2021/06/05 19:04:28;;;;;;;2.55;2.25;;;24.40;44.70;;;;;;5044337;28;20028;-67
2021/06/05 19:06:56;;;;;;;4.18;2.65;;;24.40;44.80;;;;;;5058857;28;20043;-67
2021/06/05 19:09:24;;;;;;;3.00;2.00;;;24.30;44.80;;;;;;5064363;28;20044;-66
2021/06/05 19:11:51;;;;;;;3.58;2.63;;;24.20;45.40;;;;;;5061301;28;20060;-65
2021/06/05 19:14:21;;;;;;;3.58;2.17;;;24.30;45.40;;;;;;5052454;28;20494;-66
2021/06/05 19:16:47;;;;;;;5.32;2.92;;;24.20;45.70;;;;;;5059292;28;20044;-66
2021/06/05 19:19:13;;;;;;;6.07;2.80;;;24.20;45.80;;;;;;5075014;28;20123;-65
2021/06/05 19:21:40;;;;;;;5.13;2.85;;;24.20;46.00;;;;;;5070804;28;20048;-65
2021/06/05 19:24:08;;;;;;;6.10;3.22;;;24.20;46.10;;;;;;5057587;28;20033;-66
2021/06/05 19:26:38;;;;;;;4.38;2.90;;;24.10;46.00;;;;;;5067189;28;20048;-66
2021/06/05 19:29:05;;;;;;;3.85;3.13;;;24.10;46.20;;;;;;5068179;28;20040;-66
2021/06/05 19:31:32;;;;;;;4.82;3.10;;;24.20;46.50;;;;;;5047446;28;20469;-65
2021/06/05 19:33:59;;;;;;;3.13;2.67;;;24.10;46.60;;;;;;5048692;28;20144;-66
2021/06/05 19:36:31;;;;;;;5.03;2.97;;;24.10;46.20;;;;;;5079266;28;20129;-65
2021/06/05 19:38:59;;;;;;;7.20;3.97;;;24.20;46.40;;;;;;5058028;28;20128;-66
2021/06/05 19:41:26;;;;;;;6.18;3.13;;;24.20;46.40;;;;;;5067311;28;20043;-65
2021/06/05 19:43:55;;;;;;;4.03;3.10;;;24.20;46.70;;;;;;5078636;28;20143;-65
2021/06/05 19:46:23;;;;;;;5.57;3.55;;;24.10;46.70;;;;;;5067172;28;20048;-66
2021/06/05 19:48:49;;;;;;;6.40;3.83;;;24.10;46.70;;;;;;5075858;28;20040;-66
2021/06/05 19:51:16;;;;;;;5.78;4.28;;;24.20;46.70;;;;;;5070417;28;20044;-65
2021/06/05 19:53:42;;;;;;;4.20;3.40;;;24.20;47.20;;;;;;5063859;28;20121;-65
2021/06/05 19:56:09;;;;;;;6.95;3.05;;;24.10;46.90;;;;;;5061460;28;20127;-65
2021/06/05 19:58:37;;;;;;;4.70;2.60;;;24.10;46.90;;;;;;5058534;28;20063;-65
2021/06/05 20:01:11;;;;;;;5.40;3.60;;;24.10;46.60;;;;;;5065337;28;20064;-65
2021/06/05 20:03:37;;;;;;;6.22;3.20;;;24.10;47.00;;;;;;5073343;28;20032;-61
2021/06/05 20:06:03;;;;;;;3.75;2.60;;;24.10;46.80;;;;;;5064320;28;20044;-66
2021/06/05 20:08:29;;;;;;;3.88;2.92;;;24.10;46.90;;;;;;5063810;28;20521;-66
2021/06/05 20:10:55;;;;;;;5.63;2.72;;;24.10;47.00;;;;;;5074106;28;20120;-66
2021/06/05 20:13:22;;;;;;;3.70;2.83;;;24.00;47.20;;;;;;5068384;28;20120;-66
2021/06/05 20:15:52;;;;;;;4.63;3.03;;;24.00;46.80;;;;;;5061987;28;20041;-66
2021/06/05 20:18:19;;;;;;;3.85;3.40;;;24.00;47.00;;;;;;5079101;28;20118;-66
2021/06/05 20:20:49;;;;;;;4.10;3.00;;;24.00;46.80;;;;;;5066585;28;20063;-66
2021/06/05 20:23:21;;;;;;;7.70;3.53;;;24.00;47.10;;;;;;5054339;28;20127;-66
2021/06/05 20:25:46;;;;;;;3.55;2.92;;;24.00;47.20;;;;;;5058773;28;20044;-67
2021/06/05 20:28:13;;;;;;;8.55;4.10;;;23.80;47.00;;;;;;5071029;28;20515;-66
2021/06/05 20:30:40;;;;;;;6.72;3.47;;;23.80;47.30;;;;;;5060905;28;20419;-65
2021/06/05 20:33:07;;;;;;;4.88;3.60;;;23.80;47.70;;;;;;5076810;28;20432;-66
2021/06/05 20:35:34;;;;;;;5.00;3.35;;;23.80;48.40;;;;;;5070308;28;20123;-66
2021/06/05 20:38:00;;;;;;;7.53;3.75;;;23.80;48.10;;;;;;5071391;28;20041;-66
2021/06/05 20:40:28;;;;;;;8.52;3.83;;;23.70;48.40;;;;;;5070151;28;20056;-66
2021/06/05 20:42:54;;;;;;;7.15;3.63;;;23.80;48.70;;;;;;5066330;28;20044;-66
2021/06/05 20:45:22;;;;;;;9.20;4.05;;;23.70;48.90;;;;;;5061455;28;20067;-66
2021/06/05 20:47:48;;;;;;;4.55;3.53;;;23.60;49.50;;;;;;5063496;28;20167;-65
2021/06/05 20:50:16;;;;;;;10.70;4.65;;;23.60;50.40;;;;;;5066338;28;20033;-65
2021/06/05 20:52:44;;;;;;;6.45;4.00;;;23.50;50.20;;;;;;5060550;28;20082;-65
2021/06/05 20:55:12;;;;;;;7.80;4.38;;;23.50;50.60;;;;;;5079026;28;20028;-65
2021/06/05 20:57:38;;;;;;;10.55;4.43;;;23.50;51.00;;;;;;5079773;28;20088;-65
2021/06/05 21:00:11;;;;;;;10.52;5.13;;;23.50;50.40;;;;;;5078509;28;20033;-66
2021/06/05 21:02:37;;;;;;;6.85;4.22;;;23.60;51.10;;;;;;5056465;28;20098;-64
2021/06/05 21:05:04;;;;;;;8.57;4.10;;;23.50;51.20;;;;;;5069866;28;20482;-66
2021/06/05 21:07:29;;;;;;;10.10;4.25;;;23.60;51.30;;;;;;5063555;28;20032;-66
2021/06/05 21:09:55;;;;;;;7.22;4.22;;;23.50;51.70;;;;;;5061884;28;20078;-65
2021/06/05 21:12:21;;;;;;;8.90;4.40;;;23.50;52.20;;;;;;5067187;28;20410;-66
2021/06/05 21:14:46;;;;;;;6.05;3.90;;;23.40;52.10;;;;;;5076386;28;20531;-65
2021/06/05 21:17:12;;;;;;;5.72;4.63;;;23.20;52.30;;;;;;5056174;28;20028;-65
2021/06/05 21:19:37;;;;;;;6.63;3.97;;;23.20;52.80;;;;;;5059183;28;20505;-64
2021/06/05 21:22:03;;;;;;;8.93;4.13;;;23.20;53.50;;;;;;5056766;28;20040;-65
2021/06/05 21:24:30;;;;;;;5.20;3.72;;;23.20;53.10;;;;;;5055305;28;20024;-66
2021/06/05 21:26:56;;;;;;;7.47;4.22;;;23.30;53.30;;;;;;5047758;28;20041;-66
2021/06/05 21:29:22;;;;;;;10.38;4.00;;;23.30;53.90;;;;;;5045997;28;20029;-66
2021/06/05 21:31:49;;;;;;;7.22;4.03;;;23.30;54.50;;;;;;5052808;28;20563;-65
2021/06/05 21:34:15;;;;;;;9.23;4.00;;;23.20;54.50;;;;;;5040177;28;20061;-65
2021/06/05 21:36:42;;;;;;;8.18;4.38;;;23.10;54.40;;;;;;5049699;28;20044;-65
2021/06/05 21:39:09;;;;;;;9.55;4.13;;;23.20;54.30;;;;;;5046567;28;20072;-64
2021/06/05 21:41:37;;;;;;;7.03;3.90;;;23.20;55.00;;;;;;5031962;28;20065;-66
2021/06/05 21:44:04;;;;;;;10.75;5.22;;;23.00;54.80;;;;;;5050966;28;20131;-65
2021/06/05 21:46:30;;;;;;;11.57;4.85;;;23.10;54.80;;;;;;5051301;28;20098;-65
2021/06/05 21:48:56;;;;;;;10.10;4.45;;;23.00;55.00;;;;;;5042857;28;20060;-65
2021/06/05 21:51:24;;;;;;;7.07;4.10;;;23.10;54.90;;;;;;5045339;28;20117;-65
2021/06/05 21:53:50;;;;;;;7.60;4.25;;;23.00;55.50;;;;;;5046171;28;20045;-65
2021/06/05 21:56:16;;;;;;;7.65;3.95;;;22.90;55.30;;;;;;5045333;28;20120;-65
2021/06/05 21:58:42;;;;;;;8.73;4.18;;;23.00;56.30;;;;;;5056359;28;20083;-64
2021/06/05 22:01:11;;;;;;;5.00;3.83;;;22.90;56.50;;;;;;5054921;28;20469;-64
2021/06/05 22:03:43;;;;;;;7.47;4.00;;;22.90;56.40;;;;;;5054364;28;20048;-65
2021/06/05 22:06:14;;;;;;;9.88;4.47;;;22.90;56.50;;;;;;5055088;28;20539;-64
2021/06/05 22:08:41;;;;;;;6.10;4.40;;;22.90;56.10;;;;;;5061759;28;20042;-64
2021/06/05 22:11:20;;;;;;;8.20;4.68;;;22.90;56.40;;;;;;5053902;28;20033;-64
2021/06/05 22:13:46;;;;;;;7.30;4.10;;;22.90;57.30;;;;;;5034819;28;20032;-64
2021/06/05 22:16:19;;;;;;;7.15;4.60;;;22.90;56.50;;;;;;5048247;28;20033;-64
2021/06/05 22:18:46;;;;;;;10.15;3.95;;;22.80;56.90;;;;;;5041544;28;20044;-64
2021/06/05 22:21:13;;;;;;;5.20;4.38;;;22.80;56.60;;;;;;5055632;28;20037;-64
2021/06/05 22:23:40;;;;;;;8.10;4.75;;;22.90;56.80;;;;;;5062603;28;20390;-64
2021/06/05 22:26:06;;;;;;;7.82;4.65;;;22.70;57.50;;;;;;5054962;28;20149;-64
2021/06/05 22:28:33;;;;;;;7.50;4.10;;;22.70;57.40;;;;;;5052191;28;20049;-65
2021/06/05 22:31:09;;;;;;;7.30;4.55;;;22.60;57.70;;;;;;5038725;28;20041;-65
2021/06/05 22:33:36;;;;;;;7.30;4.25;;;22.70;58.20;;;;;;5043605;28;20064;-64
2021/06/05 22:36:03;;;;;;;9.18;4.10;;;22.50;58.40;;;;;;5048860;28;20041;-65
2021/06/05 22:38:29;;;;;;;11.65;4.38;;;22.50;58.20;;;;;;5047052;28;20075;-65
2021/06/05 22:40:55;;;;;;;10.00;4.40;;;22.60;58.30;;;;;;5038623;28;20091;-65
2021/06/05 22:43:24;;;;;;;9.68;4.57;;;22.50;58.70;;;;;;5050589;28;20098;-65
2021/06/05 22:45:51;;;;;;;7.50;4.07;;;22.50;58.30;;;;;;5052809;28;20487;-64
2021/06/05 22:48:18;;;;;;;7.68;4.25;;;22.50;58.60;;;;;;5048871;28;20112;-63
2021/06/05 22:50:44;;;;;;;6.47;4.43;;;22.50;58.60;;;;;;5050999;28;20484;-64
2021/06/05 22:53:10;;;;;;;11.05;4.60;;;22.40;59.60;;;;;;5041381;28;20037;-64
2021/06/05 22:55:38;;;;;;;11.40;4.80;;;22.40;59.00;;;;;;5052653;28;20891;-65
2021/06/05 22:58:05;;;;;;;7.80;5.03;;;22.40;59.50;;;;;;5042200;28;20078;-65
2021/06/05 23:00:32;;;;;;;8.52;4.85;;;22.30;59.40;;;;;;5056618;28;20043;-65
2021/06/05 23:03:00;;;;;;;5.72;4.28;;;22.30;59.50;;;;;;5050105;28;20041;-65
2021/06/05 23:05:29;;;;;;;8.35;5.07;;;22.30;59.60;;;;;;5057651;28;20513;-65
2021/06/05 23:07:58;;;;;;;8.45;4.30;;;22.30;59.70;;;;;;5043102;28;20398;-64
2021/06/05 23:10:23;;;;;;;7.53;4.60;;;22.30;59.70;;;;;;5052803;28;20040;-65
2021/06/05 23:12:50;;;;;;;9.20;5.35;;;22.30;59.60;;;;;;5056736;28;20513;-64
2021/06/05 23:15:16;;;;;;;10.50;5.80;;;22.20;60.60;;;;;;5059864;28;20040;-65
2021/06/05 23:17:42;;;;;;;7.10;5.13;;;22.10;60.50;;;;;;5049347;28;20048;-64
2021/06/05 23:20:14;;;;;;;10.85;5.20;;;22.20;60.30;;;;;;5040201;28;20044;-64
2021/06/05 23:22:41;;;;;;;9.75;5.13;;;22.20;60.70;;;;;;5074487;28;20539;-65
2021/06/05 23:25:09;;;;;;;15.07;4.80;;;22.20;60.30;;;;;;5083532;28;20492;-65
2021/06/05 23:27:35;;;;;;;6.97;4.88;;;22.20;60.20;;;;;;5075745;28;20162;-65
2021/06/05 23:30:01;;;;;;;10.70;4.65;;;22.20;60.30;;;;;;5072442;28;20044;-65
2021/06/05 23:32:26;;;;;;;12.27;5.65;;;22.30;60.40;;;;;;5082186;28;20476;-65
2021/06/05 23:34:52;;;;;;;6.70;5.10;;;22.30;60.30;;;;;;5056113;28;20097;-65
2021/06/05 23:37:19;;;;;;;10.38;6.10;;;22.00;60.80;;;;;;5078975;28;20521;-66
2021/06/05 23:39:45;;;;;;;7.78;5.70;;;22.00;60.90;;;;;;5074443;28;20051;-65
2021/06/05 23:42:11;;;;;;;11.85;5.07;;;22.10;61.00;;;;;;5081658;28;20481;-65
2021/06/05 23:44:37;;;;;;;6.85;4.82;;;22.10;61.20;;;;;;5071979;28;20055;-66
2021/06/05 23:47:03;;;;;;;9.52;5.35;;;22.10;60.80;;;;;;5072228;28;20545;-65
2021/06/05 23:49:29;;;;;;;8.57;4.63;;;22.10;60.60;;;;;;5054100;28;20061;-66
2021/06/05 23:51:55;;;;;;;9.73;5.72;;;22.00;60.70;;;;;;5067958;28;20039;-65
2021/06/05 23:54:21;;;;;;;7.72;5.45;;;22.00;60.80;;;;;;5076703;28;20760;-66
2021/06/05 23:56:46;;;;;;;8.73;5.35;;;22.00;61.00;;;;;;5077578;28;20480;-64
2021/06/05 23:59:12;;;;;;;10.38;5.45;;;22.10;60.70;;;;;;5075515;28;20080;-66
